sensor_id;sensor_type;location;lat;lon;timestamp;temperature;humidity
78733;DHT22;68056;52.530;5.454;2023-03-01T00:00:45;1.10;62.90
78733;DHT22;68056;52.530;5.454;2023-03-01T00:03:12;1.10;62.90
78733;DHT22;68056;52.530;5.454;2023-03-01T00:05:44;1.00;62.90
78733;DHT22;68056;52.530;5.454;2023-03-01T00:08:10;1.00;63.00
78733;DHT22;68056;52.530;5.454;2023-03-01T00:10:36;1.00;63.00
78733;DHT22;68056;52.530;5.454;2023-03-01T00:13:01;1.00;63.00
78733;DHT22;68056;52.530;5.454;2023-03-01T00:15:27;1.00;63.00
78733;DHT22;68056;52.530;5.454;2023-03-01T00:17:53;1.00;63.00
78733;DHT22;68056;52.530;5.454;2023-03-01T00:20:19;0.90;63.00
78733;DHT22;68056;52.530;5.454;2023-03-01T00:22:44;0.90;63.00
78733;DHT22;68056;52.530;5.454;2023-03-01T00:25:10;0.80;63.10
78733;DHT22;68056;52.530;5.454;2023-03-01T00:27:35;0.80;63.00
78733;DHT22;68056;52.530;5.454;2023-03-01T00:30:01;0.80;63.10
78733;DHT22;68056;52.530;5.454;2023-03-01T00:32:27;0.80;63.10
78733;DHT22;68056;52.530;5.454;2023-03-01T00:34:52;0.80;63.10
78733;DHT22;68056;52.530;5.454;2023-03-01T00:37:21;0.70;63.20
78733;DHT22;68056;52.530;5.454;2023-03-01T00:39:47;0.70;63.10
78733;DHT22;68056;52.530;5.454;2023-03-01T00:42:13;0.60;63.10
78733;DHT22;68056;52.530;5.454;2023-03-01T00:44:39;0.60;63.20
78733;DHT22;68056;52.530;5.454;2023-03-01T00:47:04;0.60;63.20
78733;DHT22;68056;52.530;5.454;2023-03-01T00:49:30;0.50;63.20
78733;DHT22;68056;52.530;5.454;2023-03-01T00:51:56;0.50;63.20
78733;DHT22;68056;52.530;5.454;2023-03-01T00:54:21;0.40;63.20
78733;DHT22;68056;52.530;5.454;2023-03-01T00:56:47;0.40;63.20
78733;DHT22;68056;52.530;5.454;2023-03-01T00:59:12;0.40;63.20
78733;DHT22;68056;52.530;5.454;2023-03-01T01:01:38;0.30;63.20
78733;DHT22;68056;52.530;5.454;2023-03-01T01:04:07;0.30;63.20
78733;DHT22;68056;52.530;5.454;2023-03-01T01:06:40;0.30;63.30
78733;DHT22;68056;52.530;5.454;2023-03-01T01:09:08;0.30;63.20
78733;DHT22;68056;52.530;5.454;2023-03-01T01:11:35;0.30;63.20
78733;DHT22;68056;52.530;5.454;2023-03-01T01:14:02;0.20;63.20
78733;DHT22;68056;52.530;5.454;2023-03-01T01:16:28;0.20;63.20
78733;DHT22;68056;52.530;5.454;2023-03-01T01:18:55;0.10;63.20
78733;DHT22;68056;52.530;5.454;2023-03-01T01:21:22;0.10;63.20
78733;DHT22;68056;52.530;5.454;2023-03-01T01:23:49;0.00;63.20
78733;DHT22;68056;52.530;5.454;2023-03-01T01:26:24;0.00;63.20
78733;DHT22;68056;52.530;5.454;2023-03-01T01:28:51;0.00;63.20
78733;DHT22;68056;52.530;5.454;2023-03-01T01:31:17;0.00;63.20
78733;DHT22;68056;52.530;5.454;2023-03-01T01:33:43;0.00;63.20
78733;DHT22;68056;52.530;5.454;2023-03-01T01:36:09;0.00;63.20
78733;DHT22;68056;52.530;5.454;2023-03-01T01:38:36;0.00;63.20
78733;DHT22;68056;52.530;5.454;2023-03-01T01:41:02;0.00;63.20
78733;DHT22;68056;52.530;5.454;2023-03-01T01:43:30;0.00;63.20
78733;DHT22;68056;52.530;5.454;2023-03-01T01:46:53;0.00;63.20
78733;DHT22;68056;52.530;5.454;2023-03-01T01:48:59;-0.10;63.20
78733;DHT22;68056;52.530;5.454;2023-03-01T01:51:29;-0.10;63.20
78733;DHT22;68056;52.530;5.454;2023-03-01T01:54:13;-0.10;63.20
78733;DHT22;68056;52.530;5.454;2023-03-01T01:56:42;-0.10;63.20
78733;DHT22;68056;52.530;5.454;2023-03-01T01:59:10;-0.10;63.20
78733;DHT22;68056;52.530;5.454;2023-03-01T02:01:36;-0.10;63.20
78733;DHT22;68056;52.530;5.454;2023-03-01T02:04:02;-0.10;63.20
78733;DHT22;68056;52.530;5.454;2023-03-01T02:06:33;-0.20;63.20
78733;DHT22;68056;52.530;5.454;2023-03-01T02:09:06;-0.20;63.20
78733;DHT22;68056;52.530;5.454;2023-03-01T02:11:33;-0.30;63.20
78733;DHT22;68056;52.530;5.454;2023-03-01T02:13:59;-0.30;63.20
78733;DHT22;68056;52.530;5.454;2023-03-01T02:16:26;-0.30;63.30
78733;DHT22;68056;52.530;5.454;2023-03-01T02:18:52;-0.30;63.30
78733;DHT22;68056;52.530;5.454;2023-03-01T02:24:40;-0.30;63.40
78733;DHT22;68056;52.530;5.454;2023-03-01T02:27:08;-0.40;63.30
78733;DHT22;68056;52.530;5.454;2023-03-01T02:29:35;-0.30;63.30
78733;DHT22;68056;52.530;5.454;2023-03-01T02:32:02;-0.40;63.20
78733;DHT22;68056;52.530;5.454;2023-03-01T02:34:31;-0.40;63.20
78733;DHT22;68056;52.530;5.454;2023-03-01T02:37:02;-0.40;63.30
78733;DHT22;68056;52.530;5.454;2023-03-01T02:39:48;-0.40;63.30
78733;DHT22;68056;52.530;5.454;2023-03-01T02:42:21;-0.40;63.30
78733;DHT22;68056;52.530;5.454;2023-03-01T02:44:49;-0.40;63.20
78733;DHT22;68056;52.530;5.454;2023-03-01T02:47:15;-0.40;63.20
78733;DHT22;68056;52.530;5.454;2023-03-01T02:49:41;-0.50;63.30
78733;DHT22;68056;52.530;5.454;2023-03-01T02:52:23;-0.50;63.30
78733;DHT22;68056;52.530;5.454;2023-03-01T02:55:21;-0.50;63.30
78733;DHT22;68056;52.530;5.454;2023-03-01T02:57:48;-0.60;63.30
78733;DHT22;68056;52.530;5.454;2023-03-01T03:00:19;-0.60;63.30
78733;DHT22;68056;52.530;5.454;2023-03-01T03:02:50;-0.60;63.30
78733;DHT22;68056;52.530;5.454;2023-03-01T03:05:22;-0.60;63.30
78733;DHT22;68056;52.530;5.454;2023-03-01T03:07:49;-0.60;63.30
78733;DHT22;68056;52.530;5.454;2023-03-01T03:10:19;-0.60;63.30
78733;DHT22;68056;52.530;5.454;2023-03-01T03:12:50;-0.70;63.30
78733;DHT22;68056;52.530;5.454;2023-03-01T03:15:16;-0.70;63.30
78733;DHT22;68056;52.530;5.454;2023-03-01T03:17:43;-0.70;63.30
78733;DHT22;68056;52.530;5.454;2023-03-01T03:20:10;-0.70;63.30
78733;DHT22;68056;52.530;5.454;2023-03-01T03:22:40;-0.70;63.30
78733;DHT22;68056;52.530;5.454;2023-03-01T03:25:07;-0.70;63.40
78733;DHT22;68056;52.530;5.454;2023-03-01T03:27:42;-0.70;63.40
78733;DHT22;68056;52.530;5.454;2023-03-01T03:30:12;-0.70;63.40
78733;DHT22;68056;52.530;5.454;2023-03-01T03:32:39;-0.70;63.40
78733;DHT22;68056;52.530;5.454;2023-03-01T03:35:07;-0.70;63.30
78733;DHT22;68056;52.530;5.454;2023-03-01T03:37:38;-0.70;63.30
78733;DHT22;68056;52.530;5.454;2023-03-01T03:40:23;-0.70;63.30
78733;DHT22;68056;52.530;5.454;2023-03-01T03:42:49;-0.80;63.30
78733;DHT22;68056;52.530;5.454;2023-03-01T03:45:15;-0.80;63.40
78733;DHT22;68056;52.530;5.454;2023-03-01T03:47:42;-0.70;63.40
78733;DHT22;68056;52.530;5.454;2023-03-01T03:50:09;-0.70;63.40
78733;DHT22;68056;52.530;5.454;2023-03-01T03:52:34;-0.70;63.40
78733;DHT22;68056;52.530;5.454;2023-03-01T03:55:00;-0.70;63.40
78733;DHT22;68056;52.530;5.454;2023-03-01T03:57:25;-0.70;63.40
78733;DHT22;68056;52.530;5.454;2023-03-01T03:59:51;-0.80;63.40
78733;DHT22;68056;52.530;5.454;2023-03-01T04:02:16;-0.90;63.30
78733;DHT22;68056;52.530;5.454;2023-03-01T04:04:48;-0.90;63.40
78733;DHT22;68056;52.530;5.454;2023-03-01T04:07:15;-1.00;63.50
78733;DHT22;68056;52.530;5.454;2023-03-01T04:09:42;-1.00;63.50
78733;DHT22;68056;52.530;5.454;2023-03-01T04:12:08;-1.00;63.60
78733;DHT22;68056;52.530;5.454;2023-03-01T04:14:33;-1.00;63.60
78733;DHT22;68056;52.530;5.454;2023-03-01T04:16:59;-1.00;63.60
78733;DHT22;68056;52.530;5.454;2023-03-01T04:19:24;-1.00;63.60
78733;DHT22;68056;52.530;5.454;2023-03-01T04:21:52;-1.00;63.60
78733;DHT22;68056;52.530;5.454;2023-03-01T04:24:18;-0.90;63.60
78733;DHT22;68056;52.530;5.454;2023-03-01T04:26:44;-0.90;63.60
78733;DHT22;68056;52.530;5.454;2023-03-01T04:29:09;-0.90;63.60
78733;DHT22;68056;52.530;5.454;2023-03-01T04:31:35;-0.90;63.60
78733;DHT22;68056;52.530;5.454;2023-03-01T04:34:01;-1.00;63.50
78733;DHT22;68056;52.530;5.454;2023-03-01T04:36:29;-1.00;63.60
78733;DHT22;68056;52.530;5.454;2023-03-01T04:38:55;-1.00;63.60
78733;DHT22;68056;52.530;5.454;2023-03-01T04:41:23;-0.90;63.60
78733;DHT22;68056;52.530;5.454;2023-03-01T04:43:49;-0.90;63.60
78733;DHT22;68056;52.530;5.454;2023-03-01T04:46:18;-0.90;63.60
78733;DHT22;68056;52.530;5.454;2023-03-01T04:48:44;-0.90;63.60
78733;DHT22;68056;52.530;5.454;2023-03-01T04:51:11;-0.90;63.60
78733;DHT22;68056;52.530;5.454;2023-03-01T04:53:39;-0.90;63.60
78733;DHT22;68056;52.530;5.454;2023-03-01T04:56:05;-1.00;63.60
78733;DHT22;68056;52.530;5.454;2023-03-01T04:58:30;-1.00;63.60
78733;DHT22;68056;52.530;5.454;2023-03-01T05:00:56;-1.00;63.70
78733;DHT22;68056;52.530;5.454;2023-03-01T05:03:22;-1.00;63.70
78733;DHT22;68056;52.530;5.454;2023-03-01T05:05:49;-1.10;63.70
78733;DHT22;68056;52.530;5.454;2023-03-01T05:08:15;-1.10;63.70
78733;DHT22;68056;52.530;5.454;2023-03-01T05:10:51;-1.10;63.70
78733;DHT22;68056;52.530;5.454;2023-03-01T05:13:19;-1.10;63.70
78733;DHT22;68056;52.530;5.454;2023-03-01T05:15:56;-1.20;63.70
78733;DHT22;68056;52.530;5.454;2023-03-01T05:18:22;-1.30;63.80
78733;DHT22;68056;52.530;5.454;2023-03-01T05:20:54;-1.30;63.80
78733;DHT22;68056;52.530;5.454;2023-03-01T05:23:24;-1.30;63.70
78733;DHT22;68056;52.530;5.454;2023-03-01T05:25:49;-1.30;63.70
78733;DHT22;68056;52.530;5.454;2023-03-01T05:28:18;-1.30;63.70
78733;DHT22;68056;52.530;5.454;2023-03-01T05:30:45;-1.30;63.70
78733;DHT22;68056;52.530;5.454;2023-03-01T05:33:11;-1.30;63.70
78733;DHT22;68056;52.530;5.454;2023-03-01T05:35:41;-1.30;63.70
78733;DHT22;68056;52.530;5.454;2023-03-01T05:38:07;-1.30;63.70
78733;DHT22;68056;52.530;5.454;2023-03-01T05:40:34;-1.30;63.70
78733;DHT22;68056;52.530;5.454;2023-03-01T05:43:00;-1.30;63.70
78733;DHT22;68056;52.530;5.454;2023-03-01T05:45:27;-1.30;63.70
78733;DHT22;68056;52.530;5.454;2023-03-01T05:47:53;-1.30;63.70
78733;DHT22;68056;52.530;5.454;2023-03-01T05:50:25;-1.30;63.70
78733;DHT22;68056;52.530;5.454;2023-03-01T05:52:58;-1.30;63.80
78733;DHT22;68056;52.530;5.454;2023-03-01T05:55:24;-1.30;63.70
78733;DHT22;68056;52.530;5.454;2023-03-01T05:57:50;-1.20;63.70
78733;DHT22;68056;52.530;5.454;2023-03-01T06:00:18;-1.20;63.70
78733;DHT22;68056;52.530;5.454;2023-03-01T06:02:44;-1.20;63.70
78733;DHT22;68056;52.530;5.454;2023-03-01T06:05:11;-1.20;63.70
78733;DHT22;68056;52.530;5.454;2023-03-01T06:07:39;-1.20;63.70
78733;DHT22;68056;52.530;5.454;2023-03-01T06:10:07;-1.20;63.70
78733;DHT22;68056;52.530;5.454;2023-03-01T06:12:37;-1.20;63.80
78733;DHT22;68056;52.530;5.454;2023-03-01T06:15:05;-1.20;63.80
78733;DHT22;68056;52.530;5.454;2023-03-01T06:17:33;-1.30;63.80
78733;DHT22;68056;52.530;5.454;2023-03-01T06:20:09;-1.30;63.90
78733;DHT22;68056;52.530;5.454;2023-03-01T06:22:35;-1.30;63.90
78733;DHT22;68056;52.530;5.454;2023-03-01T06:25:01;-1.30;63.90
78733;DHT22;68056;52.530;5.454;2023-03-01T06:27:27;-1.30;64.10
78733;DHT22;68056;52.530;5.454;2023-03-01T06:29:52;-1.40;64.10
78733;DHT22;68056;52.530;5.454;2023-03-01T06:32:18;-1.40;64.20
78733;DHT22;68056;52.530;5.454;2023-03-01T06:34:44;-1.30;64.20
78733;DHT22;68056;52.530;5.454;2023-03-01T06:37:10;-1.30;64.30
78733;DHT22;68056;52.530;5.454;2023-03-01T06:39:35;-1.30;64.30
78733;DHT22;68056;52.530;5.454;2023-03-01T06:42:01;-1.30;64.30
78733;DHT22;68056;52.530;5.454;2023-03-01T06:44:27;-1.20;64.30
78733;DHT22;68056;52.530;5.454;2023-03-01T06:46:53;-1.20;64.30
78733;DHT22;68056;52.530;5.454;2023-03-01T06:49:18;-1.10;64.40
78733;DHT22;68056;52.530;5.454;2023-03-01T06:51:45;-1.10;64.30
78733;DHT22;68056;52.530;5.454;2023-03-01T06:54:12;-1.10;64.40
78733;DHT22;68056;52.530;5.454;2023-03-01T06:56:38;-1.10;64.40
78733;DHT22;68056;52.530;5.454;2023-03-01T06:59:03;-1.10;64.50
78733;DHT22;68056;52.530;5.454;2023-03-01T07:01:30;-1.10;64.50
78733;DHT22;68056;52.530;5.454;2023-03-01T07:03:56;-1.10;64.50
78733;DHT22;68056;52.530;5.454;2023-03-01T07:06:22;-1.10;64.50
78733;DHT22;68056;52.530;5.454;2023-03-01T07:08:48;-1.00;64.60
78733;DHT22;68056;52.530;5.454;2023-03-01T07:11:17;-1.00;64.60
78733;DHT22;68056;52.530;5.454;2023-03-01T07:13:42;-1.00;64.50
78733;DHT22;68056;52.530;5.454;2023-03-01T07:16:08;-0.90;64.60
78733;DHT22;68056;52.530;5.454;2023-03-01T07:18:33;-0.90;64.50
78733;DHT22;68056;52.530;5.454;2023-03-01T07:21:04;-0.70;64.50
78733;DHT22;68056;52.530;5.454;2023-03-01T07:23:31;-0.70;64.50
78733;DHT22;68056;52.530;5.454;2023-03-01T07:25:57;-0.60;64.40
78733;DHT22;68056;52.530;5.454;2023-03-01T07:28:23;-0.50;64.30
78733;DHT22;68056;52.530;5.454;2023-03-01T07:30:49;-0.40;64.30
78733;DHT22;68056;52.530;5.454;2023-03-01T07:33:15;-0.30;64.10
78733;DHT22;68056;52.530;5.454;2023-03-01T07:35:40;-0.10;64.10
78733;DHT22;68056;52.530;5.454;2023-03-01T07:38:06;0.00;64.00
78733;DHT22;68056;52.530;5.454;2023-03-01T07:40:31;0.20;63.90
78733;DHT22;68056;52.530;5.454;2023-03-01T07:42:58;0.50;63.70
78733;DHT22;68056;52.530;5.454;2023-03-01T07:45:24;1.00;63.40
78733;DHT22;68056;52.530;5.454;2023-03-01T07:47:52;1.40;62.90
78733;DHT22;68056;52.530;5.454;2023-03-01T07:50:18;1.80;62.40
78733;DHT22;68056;52.530;5.454;2023-03-01T07:52:48;2.30;62.10
78733;DHT22;68056;52.530;5.454;2023-03-01T07:55:15;2.70;61.70
78733;DHT22;68056;52.530;5.454;2023-03-01T07:57:41;3.10;61.40
78733;DHT22;68056;52.530;5.454;2023-03-01T08:00:10;3.30;61.10
78733;DHT22;68056;52.530;5.454;2023-03-01T08:02:36;3.70;61.00
78733;DHT22;68056;52.530;5.454;2023-03-01T08:05:02;3.90;60.80
78733;DHT22;68056;52.530;5.454;2023-03-01T08:07:27;4.20;60.70
78733;DHT22;68056;52.530;5.454;2023-03-01T08:09:53;4.50;60.50
78733;DHT22;68056;52.530;5.454;2023-03-01T08:12:18;4.80;60.40
78733;DHT22;68056;52.530;5.454;2023-03-01T08:14:44;5.10;60.30
78733;DHT22;68056;52.530;5.454;2023-03-01T08:17:10;5.50;60.20
78733;DHT22;68056;52.530;5.454;2023-03-01T08:19:35;5.70;60.00
78733;DHT22;68056;52.530;5.454;2023-03-01T08:22:02;6.00;59.90
78733;DHT22;68056;52.530;5.454;2023-03-01T08:24:28;6.30;59.80
78733;DHT22;68056;52.530;5.454;2023-03-01T08:26:54;6.60;59.60
78733;DHT22;68056;52.530;5.454;2023-03-01T08:29:20;7.00;59.50
78733;DHT22;68056;52.530;5.454;2023-03-01T08:31:46;7.20;59.30
78733;DHT22;68056;52.530;5.454;2023-03-01T08:34:14;7.50;59.20
78733;DHT22;68056;52.530;5.454;2023-03-01T08:36:43;7.80;59.00
78733;DHT22;68056;52.530;5.454;2023-03-01T08:39:11;8.10;58.90
78733;DHT22;68056;52.530;5.454;2023-03-01T08:41:37;8.40;58.70
78733;DHT22;68056;52.530;5.454;2023-03-01T08:44:04;8.60;58.60
78733;DHT22;68056;52.530;5.454;2023-03-01T08:46:31;8.90;58.40
78733;DHT22;68056;52.530;5.454;2023-03-01T08:48:57;9.20;58.30
78733;DHT22;68056;52.530;5.454;2023-03-01T08:51:24;9.50;58.10
78733;DHT22;68056;52.530;5.454;2023-03-01T08:53:49;9.70;58.00
78733;DHT22;68056;52.530;5.454;2023-03-01T08:56:16;10.00;57.80
78733;DHT22;68056;52.530;5.454;2023-03-01T08:58:44;10.30;57.60
78733;DHT22;68056;52.530;5.454;2023-03-01T09:01:11;10.50;57.40
78733;DHT22;68056;52.530;5.454;2023-03-01T09:03:37;10.80;57.20
78733;DHT22;68056;52.530;5.454;2023-03-01T09:06:04;11.00;57.00
78733;DHT22;68056;52.530;5.454;2023-03-01T09:08:30;11.30;56.70
78733;DHT22;68056;52.530;5.454;2023-03-01T09:10:56;11.50;56.50
78733;DHT22;68056;52.530;5.454;2023-03-01T09:13:22;11.70;56.20
78733;DHT22;68056;52.530;5.454;2023-03-01T09:15:51;11.90;56.00
78733;DHT22;68056;52.530;5.454;2023-03-01T09:18:17;12.10;55.80
78733;DHT22;68056;52.530;5.454;2023-03-01T09:20:42;12.30;55.50
78733;DHT22;68056;52.530;5.454;2023-03-01T09:23:08;12.50;55.30
78733;DHT22;68056;52.530;5.454;2023-03-01T09:25:34;12.50;55.20
78733;DHT22;68056;52.530;5.454;2023-03-01T09:28:00;12.70;55.10
78733;DHT22;68056;52.530;5.454;2023-03-01T09:30:26;12.90;54.80
78733;DHT22;68056;52.530;5.454;2023-03-01T09:32:52;13.10;54.60
78733;DHT22;68056;52.530;5.454;2023-03-01T09:35:17;13.30;54.30
78733;DHT22;68056;52.530;5.454;2023-03-01T09:37:45;13.50;53.90
78733;DHT22;68056;52.530;5.454;2023-03-01T09:40:21;13.70;53.50
78733;DHT22;68056;52.530;5.454;2023-03-01T09:43:23;13.80;53.30
78733;DHT22;68056;52.530;5.454;2023-03-01T09:45:53;14.00;52.90
78733;DHT22;68056;52.530;5.454;2023-03-01T09:48:22;14.10;52.80
78733;DHT22;68056;52.530;5.454;2023-03-01T09:50:49;14.20;52.60
78733;DHT22;68056;52.530;5.454;2023-03-01T09:53:18;14.30;52.50
78733;DHT22;68056;52.530;5.454;2023-03-01T09:56:05;14.40;52.20
78733;DHT22;68056;52.530;5.454;2023-03-01T10:01:34;14.60;51.90
78733;DHT22;68056;52.530;5.454;2023-03-01T10:04:27;14.60;51.60
78733;DHT22;68056;52.530;5.454;2023-03-01T10:09:40;14.70;51.20
78733;DHT22;68056;52.530;5.454;2023-03-01T10:12:17;14.80;51.10
78733;DHT22;68056;52.530;5.454;2023-03-01T10:14:57;15.00;50.90
78733;DHT22;68056;52.530;5.454;2023-03-01T10:20:29;15.00;50.40
78733;DHT22;68056;52.530;5.454;2023-03-01T10:22:58;15.20;50.40
78733;DHT22;68056;52.530;5.454;2023-03-01T10:29:11;15.30;50.00
78733;DHT22;68056;52.530;5.454;2023-03-01T10:31:23;15.40;49.70
78733;DHT22;68056;52.530;5.454;2023-03-01T10:33:53;15.40;49.30
78733;DHT22;68056;52.530;5.454;2023-03-01T10:36:21;15.20;49.40
78733;DHT22;68056;52.530;5.454;2023-03-01T10:38:52;15.00;49.20
78733;DHT22;68056;52.530;5.454;2023-03-01T10:41:20;15.00;49.10
78733;DHT22;68056;52.530;5.454;2023-03-01T10:43:53;15.00;49.10
78733;DHT22;68056;52.530;5.454;2023-03-01T10:46:34;14.90;49.20
78733;DHT22;68056;52.530;5.454;2023-03-01T10:49:19;14.90;49.10
78733;DHT22;68056;52.530;5.454;2023-03-01T10:51:47;14.80;48.90
78733;DHT22;68056;52.530;5.454;2023-03-01T10:54:28;14.90;48.60
78733;DHT22;68056;52.530;5.454;2023-03-01T10:57:02;15.00;48.20
78733;DHT22;68056;52.530;5.454;2023-03-01T10:59:34;14.90;47.70
78733;DHT22;68056;52.530;5.454;2023-03-01T11:02:20;14.80;47.30
78733;DHT22;68056;52.530;5.454;2023-03-01T11:07:22;14.70;46.80
78733;DHT22;68056;52.530;5.454;2023-03-01T11:09:47;14.40;45.80
78733;DHT22;68056;52.530;5.454;2023-03-01T11:12:14;14.20;45.90
78733;DHT22;68056;52.530;5.454;2023-03-01T11:14:48;13.90;46.20
78733;DHT22;68056;52.530;5.454;2023-03-01T11:17:24;13.80;46.60
78733;DHT22;68056;52.530;5.454;2023-03-01T11:22:45;13.90;46.60
78733;DHT22;68056;52.530;5.454;2023-03-01T11:25:14;13.90;46.20
78733;DHT22;68056;52.530;5.454;2023-03-01T11:27:43;13.80;46.40
78733;DHT22;68056;52.530;5.454;2023-03-01T11:30:35;13.90;46.20
78733;DHT22;68056;52.530;5.454;2023-03-01T11:36:30;14.10;45.60
78733;DHT22;68056;52.530;5.454;2023-03-01T11:38:57;14.10;45.50
78733;DHT22;68056;52.530;5.454;2023-03-01T11:41:31;14.10;45.30
78733;DHT22;68056;52.530;5.454;2023-03-01T11:44:10;14.10;45.10
78733;DHT22;68056;52.530;5.454;2023-03-01T11:46:55;14.00;45.50
78733;DHT22;68056;52.530;5.454;2023-03-01T11:52:32;14.60;45.20
78733;DHT22;68056;52.530;5.454;2023-03-01T11:58:14;14.60;44.50
78733;DHT22;68056;52.530;5.454;2023-03-01T12:17:15;14.50;44.90
78733;DHT22;68056;52.530;5.454;2023-03-01T12:20:17;14.80;44.70
78733;DHT22;68056;52.530;5.454;2023-03-01T12:25:54;15.10;44.80
78733;DHT22;68056;52.530;5.454;2023-03-01T12:34:41;15.30;44.50
78733;DHT22;68056;52.530;5.454;2023-03-01T12:37:37;15.60;44.70
78733;DHT22;68056;52.530;5.454;2023-03-01T12:40:34;15.70;44.50
78733;DHT22;68056;52.530;5.454;2023-03-01T12:46:14;16.00;44.20
78733;DHT22;68056;52.530;5.454;2023-03-01T12:48:51;15.90;44.30
78733;DHT22;68056;52.530;5.454;2023-03-01T12:51:24;15.80;44.40
78733;DHT22;68056;52.530;5.454;2023-03-01T12:53:52;16.00;44.20
78733;DHT22;68056;52.530;5.454;2023-03-01T12:56:24;16.10;44.10
78733;DHT22;68056;52.530;5.454;2023-03-01T12:59:14;16.10;44.00
78733;DHT22;68056;52.530;5.454;2023-03-01T13:05:06;16.40;43.70
78733;DHT22;68056;52.530;5.454;2023-03-01T13:07:48;16.50;43.40
78733;DHT22;68056;52.530;5.454;2023-03-01T13:10:23;16.50;43.50
78733;DHT22;68056;52.530;5.454;2023-03-01T13:12:53;16.50;43.60
78733;DHT22;68056;52.530;5.454;2023-03-01T13:15:30;16.50;43.40
78733;DHT22;68056;52.530;5.454;2023-03-01T13:31:02;16.20;42.70
78733;DHT22;68056;52.530;5.454;2023-03-01T13:35:56;16.00;43.00
78733;DHT22;68056;52.530;5.454;2023-03-01T13:41:09;15.90;42.80
78733;DHT22;68056;52.530;5.454;2023-03-01T13:43:37;15.80;43.00
78733;DHT22;68056;52.530;5.454;2023-03-01T13:46:29;15.90;43.00
78733;DHT22;68056;52.530;5.454;2023-03-01T13:48:57;15.90;42.90
78733;DHT22;68056;52.530;5.454;2023-03-01T13:51:26;15.90;42.80
78733;DHT22;68056;52.530;5.454;2023-03-01T13:53:54;15.70;42.80
78733;DHT22;68056;52.530;5.454;2023-03-01T13:56:36;15.30;43.00
78733;DHT22;68056;52.530;5.454;2023-03-01T13:59:20;15.10;43.10
78733;DHT22;68056;52.530;5.454;2023-03-01T14:01:53;14.90;43.10
78733;DHT22;68056;52.530;5.454;2023-03-01T14:04:22;14.70;43.00
78733;DHT22;68056;52.530;5.454;2023-03-01T14:06:47;14.60;43.20
78733;DHT22;68056;52.530;5.454;2023-03-01T14:09:17;14.50;43.20
78733;DHT22;68056;52.530;5.454;2023-03-01T14:12:02;14.60;43.20
78733;DHT22;68056;52.530;5.454;2023-03-01T14:14:56;14.70;43.00
78733;DHT22;68056;52.530;5.454;2023-03-01T14:20:26;14.30;43.10
78733;DHT22;68056;52.530;5.454;2023-03-01T14:22:54;14.30;43.40
78733;DHT22;68056;52.530;5.454;2023-03-01T14:30:41;14.70;43.50
78733;DHT22;68056;52.530;5.454;2023-03-01T14:33:24;14.60;43.60
78733;DHT22;68056;52.530;5.454;2023-03-01T14:35:55;14.60;43.60
78733;DHT22;68056;52.530;5.454;2023-03-01T14:38:30;14.60;43.70
78733;DHT22;68056;52.530;5.454;2023-03-01T14:41:11;14.40;44.00
78733;DHT22;68056;52.530;5.454;2023-03-01T14:43:43;14.30;43.90
78733;DHT22;68056;52.530;5.454;2023-03-01T14:46:37;14.10;44.00
78733;DHT22;68056;52.530;5.454;2023-03-01T14:49:20;13.90;43.60
78733;DHT22;68056;52.530;5.454;2023-03-01T14:52:20;13.60;43.60
78733;DHT22;68056;52.530;5.454;2023-03-01T14:54:49;13.30;44.00
78733;DHT22;68056;52.530;5.454;2023-03-01T14:57:20;13.30;44.00
78733;DHT22;68056;52.530;5.454;2023-03-01T14:59:50;13.10;44.00
78733;DHT22;68056;52.530;5.454;2023-03-01T15:02:19;13.10;44.10
78733;DHT22;68056;52.530;5.454;2023-03-01T15:04:48;13.00;44.10
78733;DHT22;68056;52.530;5.454;2023-03-01T15:07:15;13.00;44.10
78733;DHT22;68056;52.530;5.454;2023-03-01T15:09:41;13.00;44.00
78733;DHT22;68056;52.530;5.454;2023-03-01T15:14:55;12.90;43.60
78733;DHT22;68056;52.530;5.454;2023-03-01T15:17:36;12.80;43.70
78733;DHT22;68056;52.530;5.454;2023-03-01T15:20:06;12.80;43.70
78733;DHT22;68056;52.530;5.454;2023-03-01T15:22:32;12.70;43.70
78733;DHT22;68056;52.530;5.454;2023-03-01T15:24:58;12.60;43.50
78733;DHT22;68056;52.530;5.454;2023-03-01T15:27:25;12.50;43.70
78733;DHT22;68056;52.530;5.454;2023-03-01T15:29:58;12.50;44.00
78733;DHT22;68056;52.530;5.454;2023-03-01T15:34:50;12.30;44.50
78733;DHT22;68056;52.530;5.454;2023-03-01T15:37:38;12.30;44.60
78733;DHT22;68056;52.530;5.454;2023-03-01T15:42:44;11.90;44.90
78733;DHT22;68056;52.530;5.454;2023-03-01T15:47:41;11.50;45.30
78733;DHT22;68056;52.530;5.454;2023-03-01T15:50:34;11.40;45.40
78733;DHT22;68056;52.530;5.454;2023-03-01T15:53:05;11.10;45.80
78733;DHT22;68056;52.530;5.454;2023-03-01T15:55:34;11.10;45.90
78733;DHT22;68056;52.530;5.454;2023-03-01T15:58:19;10.90;46.00
78733;DHT22;68056;52.530;5.454;2023-03-01T16:00:46;10.90;46.00
78733;DHT22;68056;52.530;5.454;2023-03-01T16:03:14;10.70;46.20
78733;DHT22;68056;52.530;5.454;2023-03-01T16:05:47;10.60;46.40
78733;DHT22;68056;52.530;5.454;2023-03-01T16:08:12;10.30;46.50
78733;DHT22;68056;52.530;5.454;2023-03-01T16:10:39;10.10;46.70
78733;DHT22;68056;52.530;5.454;2023-03-01T16:13:05;9.80;47.00
78733;DHT22;68056;52.530;5.454;2023-03-01T16:15:32;9.70;47.10
78733;DHT22;68056;52.530;5.454;2023-03-01T16:18:01;9.50;47.20
78733;DHT22;68056;52.530;5.454;2023-03-01T16:20:28;9.40;47.30
78733;DHT22;68056;52.530;5.454;2023-03-01T16:22:58;9.20;47.40
78733;DHT22;68056;52.530;5.454;2023-03-01T16:25:25;9.00;47.60
78733;DHT22;68056;52.530;5.454;2023-03-01T16:27:51;8.90;47.70
78733;DHT22;68056;52.530;5.454;2023-03-01T16:30:22;8.80;47.80
78733;DHT22;68056;52.530;5.454;2023-03-01T16:32:49;8.80;47.90
78733;DHT22;68056;52.530;5.454;2023-03-01T16:35:17;8.70;47.90
78733;DHT22;68056;52.530;5.454;2023-03-01T16:37:46;8.60;47.90
78733;DHT22;68056;52.530;5.454;2023-03-01T16:42:47;8.40;48.20
78733;DHT22;68056;52.530;5.454;2023-03-01T16:45:12;8.40;48.30
78733;DHT22;68056;52.530;5.454;2023-03-01T16:47:38;8.30;48.40
78733;DHT22;68056;52.530;5.454;2023-03-01T16:50:04;8.20;48.50
78733;DHT22;68056;52.530;5.454;2023-03-01T16:52:29;8.30;48.50
78733;DHT22;68056;52.530;5.454;2023-03-01T16:54:55;8.20;48.70
78733;DHT22;68056;52.530;5.454;2023-03-01T16:57:20;8.20;48.70
78733;DHT22;68056;52.530;5.454;2023-03-01T16:59:46;8.10;48.80
78733;DHT22;68056;52.530;5.454;2023-03-01T17:02:13;8.00;49.00
78733;DHT22;68056;52.530;5.454;2023-03-01T17:04:40;8.00;49.10
78733;DHT22;68056;52.530;5.454;2023-03-01T17:07:06;7.80;49.20
78733;DHT22;68056;52.530;5.454;2023-03-01T17:09:36;7.80;49.30
78733;DHT22;68056;52.530;5.454;2023-03-01T17:12:03;7.60;49.50
78733;DHT22;68056;52.530;5.454;2023-03-01T17:14:28;7.60;49.60
78733;DHT22;68056;52.530;5.454;2023-03-01T17:16:54;7.50;49.70
78733;DHT22;68056;52.530;5.454;2023-03-01T17:19:20;7.40;49.90
78733;DHT22;68056;52.530;5.454;2023-03-01T17:21:46;7.30;50.10
78733;DHT22;68056;52.530;5.454;2023-03-01T17:24:12;7.20;50.20
78733;DHT22;68056;52.530;5.454;2023-03-01T17:26:38;7.20;50.20
78733;DHT22;68056;52.530;5.454;2023-03-01T17:29:03;7.10;50.40
78733;DHT22;68056;52.530;5.454;2023-03-01T17:31:30;7.00;50.40